createdAt,value
2018-08-12T00:00:49.230Z,94.90
2018-08-12T00:03:17.474Z,95.50
2018-08-12T00:05:49.539Z,95.50
2018-08-12T00:08:18.159Z,95.70
2018-08-12T00:10:46.395Z,95.90
2018-08-12T00:13:15.116Z,96.40
2018-08-12T00:15:43.327Z,96.80
2018-08-12T00:18:11.872Z,96.90
2018-08-12T00:20:40.152Z,96.80
2018-08-12T00:23:09.007Z,97.10
2018-08-12T00:25:37.605Z,97.50
2018-08-12T00:28:06.014Z,97.70
2018-08-12T00:30:34.275Z,98.10
2018-08-12T00:33:03.055Z,98.10
2018-08-12T00:35:31.278Z,98.60
2018-08-12T00:37:59.522Z,98.50
2018-08-12T00:40:27.854Z,99.00
2018-08-12T00:42:56.090Z,99.10
2018-08-12T00:45:24.360Z,99.10
2018-08-12T00:47:52.571Z,99.30
2018-08-12T00:50:21.296Z,99.80
2018-08-12T00:52:49.688Z,99.60
2018-08-12T00:55:18.371Z,99.30
2018-08-12T00:57:47.510Z,99.30
2018-08-12T01:00:17.558Z,99.90
2018-08-12T01:02:46.034Z,99.90
2018-08-12T01:05:16.247Z,99.90
2018-08-12T01:07:45.215Z,99.90
2018-08-12T01:10:13.960Z,99.90
2018-08-12T01:12:42.169Z,99.90
2018-08-12T01:15:13.249Z,99.90
2018-08-12T01:20:20.645Z,99.90
2018-08-12T01:22:48.927Z,99.90
2018-08-12T01:25:17.690Z,99.90
2018-08-12T01:27:45.899Z,99.90
2018-08-12T01:30:16.223Z,99.90
2018-08-12T01:32:44.995Z,99.90
2018-08-12T01:35:13.894Z,99.90
2018-08-12T01:37:42.863Z,99.90
2018-08-12T01:40:12.463Z,99.90
2018-08-12T01:42:41.284Z,99.90
2018-08-12T01:45:11.058Z,99.90
2018-08-12T01:47:39.898Z,99.90
2018-08-12T01:50:08.674Z,99.90
2018-08-12T01:52:37.142Z,99.90
2018-08-12T01:55:05.629Z,99.90
2018-08-12T01:57:33.918Z,99.90
2018-08-12T02:00:02.314Z,99.90
2018-08-12T02:02:30.794Z,99.90
2018-08-12T02:04:59.187Z,99.90
2018-08-12T02:07:27.850Z,99.90
2018-08-12T02:09:56.555Z,99.90
2018-08-12T02:12:24.769Z,99.90
2018-08-12T02:14:53.550Z,99.90
2018-08-12T02:17:21.755Z,99.90
2018-08-12T02:19:50.367Z,99.90
2018-08-12T02:22:18.614Z,99.90
2018-08-12T02:24:47.277Z,99.90
2018-08-12T02:27:15.494Z,99.90
2018-08-12T02:29:43.727Z,99.90
2018-08-12T02:32:12.365Z,99.90
2018-08-12T02:34:40.560Z,99.90
2018-08-12T02:37:08.748Z,99.90
2018-08-12T02:39:36.975Z,99.90
2018-08-12T02:42:05.178Z,99.90
2018-08-12T02:44:33.426Z,99.90
2018-08-12T02:47:01.630Z,99.90
2018-08-12T02:49:30.463Z,99.90
2018-08-12T02:51:58.670Z,99.90
2018-08-12T02:54:27.728Z,99.90
2018-08-12T02:56:55.925Z,99.90
2018-08-12T02:59:24.549Z,99.90
2018-08-12T03:01:52.746Z,99.90
2018-08-12T03:04:21.370Z,99.90
2018-08-12T03:06:50.135Z,99.90
2018-08-12T03:09:18.331Z,99.90
2018-08-12T03:11:59.314Z,99.90
2018-08-12T03:14:28.622Z,99.90
2018-08-12T03:16:56.828Z,99.90
2018-08-12T03:19:25.598Z,99.90
2018-08-12T03:21:53.807Z,99.90
2018-08-12T03:24:22.145Z,99.90
2018-08-12T03:26:50.332Z,99.90
2018-08-12T03:29:18.502Z,99.90
2018-08-12T03:31:47.079Z,99.90
2018-08-12T03:34:15.315Z,99.90
2018-08-12T03:36:43.514Z,99.90
2018-08-12T03:39:12.318Z,99.90
2018-08-12T03:41:41.100Z,99.90
2018-08-12T03:44:09.360Z,99.90
2018-08-12T03:46:38.078Z,99.90
2018-08-12T03:49:06.379Z,99.90
2018-08-12T03:51:34.623Z,99.90
2018-08-12T03:54:03.426Z,99.90
2018-08-12T03:56:31.630Z,99.90
2018-08-12T03:58:59.851Z,99.90
2018-08-12T04:01:28.224Z,99.90
2018-08-12T04:03:59.838Z,99.90
2018-08-12T04:06:28.031Z,99.90
2018-08-12T04:08:56.470Z,99.90
2018-08-12T04:11:24.699Z,99.90
2018-08-12T04:13:53.532Z,99.90
2018-08-12T04:16:21.702Z,99.90
2018-08-12T04:18:50.679Z,99.90
2018-08-12T04:21:18.887Z,99.90
2018-08-12T04:23:48.099Z,99.90
2018-08-12T04:26:16.342Z,99.90
2018-08-12T04:28:44.522Z,99.90
2018-08-12T04:31:12.754Z,99.90
2018-08-12T04:33:41.181Z,99.90
2018-08-12T04:36:09.751Z,99.90
2018-08-12T04:38:38.180Z,99.90
2018-08-12T04:41:06.391Z,99.90
2018-08-12T04:43:34.588Z,99.90
2018-08-12T04:46:02.865Z,99.90
2018-08-12T04:48:31.179Z,99.90
2018-08-12T04:50:59.407Z,99.90
2018-08-12T04:53:27.986Z,99.90
2018-08-12T04:55:56.275Z,99.90
2018-08-12T04:58:24.584Z,99.90
2018-08-12T05:03:27.132Z,99.90
2018-08-12T05:05:58.362Z,99.90
2018-08-12T05:08:28.463Z,99.90
2018-08-12T05:10:56.654Z,99.90
2018-08-12T05:13:25.246Z,99.90
2018-08-12T05:15:53.418Z,99.90
2018-08-12T05:18:22.310Z,99.90
2018-08-12T05:20:50.502Z,99.90
2018-08-12T05:25:52.743Z,99.90
2018-08-12T05:28:20.955Z,99.90
2018-08-12T05:30:49.147Z,99.90
2018-08-12T05:33:17.797Z,99.90
2018-08-12T05:35:46.119Z,99.90
2018-08-12T05:38:14.336Z,99.90
2018-08-12T05:40:42.546Z,99.90
2018-08-12T05:43:10.802Z,99.90
2018-08-12T05:45:39.005Z,99.90
2018-08-12T05:48:07.263Z,99.90
2018-08-12T05:50:35.551Z,99.90
2018-08-12T05:53:04.566Z,99.90
2018-08-12T05:55:32.731Z,99.90
2018-08-12T05:58:00.894Z,99.90
2018-08-12T06:00:29.103Z,99.90
2018-08-12T06:02:57.311Z,99.90
2018-08-12T06:05:25.847Z,99.90
2018-08-12T06:07:54.240Z,99.90
2018-08-12T06:10:22.450Z,99.90
2018-08-12T06:12:50.605Z,99.90
2018-08-12T06:15:19.286Z,99.90
2018-08-12T06:17:51.409Z,99.90
2018-08-12T06:20:19.581Z,99.90
2018-08-12T06:22:48.319Z,99.90
2018-08-12T06:25:16.783Z,99.90
2018-08-12T06:27:44.987Z,99.90
2018-08-12T06:30:14.065Z,99.90
2018-08-12T06:32:42.625Z,99.90
2018-08-12T06:35:12.010Z,99.90
2018-08-12T06:37:40.278Z,99.90
2018-08-12T06:40:11.106Z,98.40
2018-08-12T06:42:41.244Z,98.30
2018-08-12T06:45:11.515Z,97.80
2018-08-12T06:47:39.937Z,97.00
2018-08-12T06:50:09.040Z,97.10
2018-08-12T06:52:38.290Z,95.90
2018-08-12T06:55:07.954Z,96.90
2018-08-12T06:57:36.749Z,95.30
2018-08-12T07:00:08.090Z,93.60
2018-08-12T07:02:36.998Z,93.40
2018-08-12T07:05:07.401Z,93.40
2018-08-12T07:07:35.692Z,92.40
2018-08-12T07:10:06.182Z,91.60
2018-08-12T07:12:34.350Z,87.90
2018-08-12T07:15:02.824Z,84.70
2018-08-12T07:17:30.997Z,82.50
2018-08-12T07:19:59.563Z,82.60
2018-08-12T07:22:27.774Z,79.50
2018-08-12T07:24:56.329Z,74.40
2018-08-12T07:27:24.538Z,71.20
2018-08-12T07:29:52.755Z,71.80
2018-08-12T07:32:21.259Z,67.90
2018-08-12T07:34:49.435Z,67.70
2018-08-12T07:37:17.911Z,63.30
2018-08-12T07:39:46.386Z,59.70
2018-08-12T07:42:14.583Z,59.40
2018-08-12T07:44:42.759Z,54.90
2018-08-12T07:47:11.017Z,54.90
2018-08-12T07:49:39.185Z,53.40
2018-08-12T07:52:07.436Z,54.20
2018-08-12T07:54:36.018Z,53.10
2018-08-12T07:57:04.214Z,51.80
2018-08-12T07:59:32.433Z,48.50
2018-08-12T08:02:00.626Z,50.30
2018-08-12T08:04:29.374Z,49.20
2018-08-12T08:06:57.583Z,45.10
2018-08-12T08:09:26.200Z,43.00
2018-08-12T08:11:54.403Z,43.80
2018-08-12T08:14:22.755Z,42.70
2018-08-12T08:16:51.296Z,41.70
2018-08-12T08:19:20.066Z,41.30
2018-08-12T08:21:48.247Z,44.20
2018-08-12T08:24:16.879Z,40.70
2018-08-12T08:26:45.234Z,40.10
2018-08-12T08:29:13.420Z,40.00
2018-08-12T08:31:42.356Z,39.60
2018-08-12T08:34:10.637Z,39.00
2018-08-12T08:36:38.971Z,38.50
2018-08-12T08:39:09.850Z,38.30
2018-08-12T08:41:38.063Z,40.00
2018-08-12T08:44:06.536Z,39.90
2018-08-12T08:46:34.782Z,38.70
2018-08-12T08:49:03.012Z,37.50
2018-08-12T08:51:31.270Z,34.30
2018-08-12T08:54:00.266Z,35.40
2018-08-12T08:56:28.543Z,35.10
2018-08-12T08:58:57.361Z,33.30
2018-08-12T09:01:25.643Z,34.10
2018-08-12T09:04:00.016Z,33.80
2018-08-12T09:06:28.244Z,32.60
2018-08-12T09:08:57.197Z,34.40
2018-08-12T09:11:25.255Z,33.50
2018-08-12T09:13:53.763Z,33.10
2018-08-12T09:16:21.990Z,35.00
2018-08-12T09:18:50.610Z,35.20
2018-08-12T09:21:18.786Z,35.40
2018-08-12T09:23:47.518Z,34.40
2018-08-12T09:26:15.699Z,36.10
2018-08-12T09:28:43.893Z,34.60
2018-08-12T09:31:12.180Z,33.80
2018-08-12T09:33:40.695Z,33.10
2018-08-12T09:36:09.043Z,31.80
2018-08-12T09:38:37.932Z,30.40
2018-08-12T09:41:06.452Z,30.30
2018-08-12T09:43:34.710Z,31.90
2018-08-12T09:46:02.987Z,31.30
2018-08-12T09:48:31.243Z,29.70
2018-08-12T09:50:59.550Z,29.60
2018-08-12T09:53:28.004Z,31.10
2018-08-12T09:55:56.271Z,28.90
2018-08-12T09:58:25.063Z,28.10
2018-08-12T10:00:54.518Z,28.00
2018-08-12T10:03:22.729Z,28.30
2018-08-12T10:05:51.271Z,27.80
2018-08-12T10:08:19.494Z,27.70
2018-08-12T10:10:48.127Z,27.40
2018-08-12T10:13:16.928Z,26.20
2018-08-12T10:15:45.652Z,25.60
2018-08-12T10:18:14.176Z,24.50
2018-08-12T10:20:42.358Z,24.00
2018-08-12T10:23:10.550Z,22.70
2018-08-12T10:25:39.064Z,22.90
2018-08-12T10:28:07.312Z,23.70
2018-08-12T10:30:36.209Z,23.00
2018-08-12T10:33:04.705Z,23.70
2018-08-12T10:35:33.218Z,24.70
2018-08-12T10:38:02.018Z,24.30
2018-08-12T10:40:30.254Z,24.90
2018-08-12T10:42:58.503Z,24.80
2018-08-12T10:45:26.766Z,24.10
2018-08-12T10:47:54.970Z,24.80
2018-08-12T10:50:23.229Z,26.30
2018-08-12T10:52:52.004Z,27.00
2018-08-12T10:55:21.761Z,25.20
2018-08-12T10:57:49.993Z,24.40
2018-08-12T11:00:21.438Z,24.80
2018-08-12T11:02:49.767Z,25.00
2018-08-12T11:05:18.638Z,24.70
2018-08-12T11:07:50.667Z,25.00
2018-08-12T11:10:19.464Z,25.50
2018-08-12T11:12:47.948Z,23.80
2018-08-12T11:15:16.438Z,25.40
2018-08-12T11:17:51.219Z,24.80
2018-08-12T11:20:19.491Z,24.80
2018-08-12T11:22:47.726Z,23.60
2018-08-12T11:25:16.491Z,24.00
2018-08-12T11:27:44.682Z,24.30
2018-08-12T11:30:16.086Z,24.00
2018-08-12T11:32:44.772Z,23.40
2018-08-12T11:35:14.947Z,25.10
2018-08-12T11:37:43.611Z,23.80
2018-08-12T11:40:13.271Z,23.10
2018-08-12T11:42:41.515Z,22.60
2018-08-12T11:45:18.947Z,22.50
2018-08-12T11:47:48.068Z,23.50
2018-08-12T11:50:17.303Z,23.20
2018-08-12T11:52:46.695Z,23.60
2018-08-12T11:55:18.853Z,24.60
2018-08-12T11:57:47.210Z,23.50
2018-08-12T12:00:18.171Z,23.30
2018-08-12T12:02:47.832Z,23.40
2018-08-12T12:05:16.482Z,24.30
2018-08-12T12:07:45.099Z,23.80
2018-08-12T12:10:16.744Z,24.20
2018-08-12T12:12:46.132Z,25.00
2018-08-12T12:15:15.374Z,24.90
2018-08-12T12:17:50.686Z,24.80
2018-08-12T12:20:19.667Z,25.40
2018-08-12T12:22:48.256Z,25.00
2018-08-12T12:25:19.090Z,26.10
2018-08-12T12:27:47.397Z,26.10
2018-08-12T12:30:16.951Z,26.30
2018-08-12T12:32:45.957Z,24.40
2018-08-12T12:35:14.196Z,26.00
2018-08-12T12:37:42.737Z,25.10
2018-08-12T12:40:12.894Z,26.30
2018-08-12T12:42:41.072Z,25.50
2018-08-12T12:45:10.822Z,25.80
2018-08-12T12:47:39.483Z,26.90
2018-08-12T12:50:16.860Z,27.20
2018-08-12T12:52:45.994Z,25.10
2018-08-12T12:55:14.242Z,25.70
2018-08-12T12:57:42.722Z,26.00
2018-08-12T13:00:13.006Z,26.10
2018-08-12T13:02:41.202Z,26.00
2018-08-12T13:05:12.570Z,28.10
2018-08-12T13:07:40.963Z,27.30
2018-08-12T13:10:14.583Z,28.00
2018-08-12T13:12:43.156Z,26.70
2018-08-12T13:15:12.848Z,28.00
2018-08-12T13:17:41.102Z,28.40
2018-08-12T13:20:11.595Z,29.00
2018-08-12T13:22:39.841Z,28.80
2018-08-12T13:25:11.196Z,28.90
2018-08-12T13:27:39.783Z,29.40
2018-08-12T13:30:08.888Z,29.00
2018-08-12T13:32:37.059Z,29.20
2018-08-12T13:35:05.714Z,30.30
2018-08-12T13:37:33.999Z,30.30
2018-08-12T13:40:02.752Z,30.20
2018-08-12T13:42:31.158Z,30.00
2018-08-12T13:44:59.375Z,32.60
2018-08-12T13:47:27.616Z,34.40
2018-08-12T13:49:55.982Z,33.40
2018-08-12T13:52:24.182Z,32.40
2018-08-12T13:54:52.927Z,32.60
2018-08-12T13:57:21.150Z,35.60
2018-08-12T13:59:49.427Z,34.60
2018-08-12T14:02:18.184Z,34.40
2018-08-12T14:04:46.918Z,33.90
2018-08-12T14:07:15.137Z,36.20
2018-08-12T14:09:43.313Z,34.10
2018-08-12T14:12:12.084Z,35.10
2018-08-12T14:14:40.934Z,35.20
2018-08-12T14:17:09.178Z,34.00
2018-08-12T14:19:37.907Z,36.10
2018-08-12T14:22:06.831Z,35.00
2018-08-12T14:24:35.671Z,35.30
2018-08-12T14:27:03.859Z,36.00
2018-08-12T14:29:32.096Z,35.00
2018-08-12T14:32:00.576Z,35.10
2018-08-12T14:34:28.772Z,35.10
2018-08-12T14:36:56.968Z,37.80
2018-08-12T14:39:25.651Z,35.70
2018-08-12T14:41:53.843Z,35.70
2018-08-12T14:44:22.082Z,37.60
2018-08-12T14:46:50.311Z,37.50
2018-08-12T14:49:18.506Z,38.40
2018-08-12T14:51:47.017Z,39.50
2018-08-12T14:54:15.518Z,37.50
2018-08-12T14:56:43.698Z,37.10
2018-08-12T14:59:11.937Z,36.70
2018-08-12T15:01:40.143Z,38.40
2018-08-12T15:04:08.761Z,36.30
2018-08-12T15:06:37.039Z,38.80
2018-08-12T15:09:08.210Z,38.80
2018-08-12T15:11:36.988Z,38.70
2018-08-12T15:14:05.457Z,37.60
2018-08-12T15:16:34.314Z,39.50
2018-08-12T15:21:35.340Z,39.40
2018-08-12T15:24:03.998Z,39.10
2018-08-12T15:26:32.325Z,38.80
2018-08-12T15:29:00.575Z,39.10
2018-08-12T15:31:28.791Z,39.80
2018-08-12T15:33:57.012Z,39.60
2018-08-12T15:36:25.315Z,39.60
2018-08-12T15:38:53.615Z,39.60
2018-08-12T15:41:21.979Z,39.30
2018-08-12T15:43:50.215Z,39.80
2018-08-12T15:46:18.439Z,39.00
2018-08-12T15:48:46.744Z,38.90
2018-08-12T15:51:15.127Z,39.20
2018-08-12T15:53:43.652Z,39.50
2018-08-12T15:56:11.932Z,40.00
2018-08-12T15:58:40.586Z,39.00
2018-08-12T16:01:08.806Z,39.50
2018-08-12T16:03:37.421Z,39.60
2018-08-12T16:06:05.842Z,40.70
2018-08-12T16:08:34.080Z,39.60
2018-08-12T16:11:02.315Z,39.60
2018-08-12T16:13:30.910Z,40.10
2018-08-12T16:15:59.663Z,39.70
2018-08-12T16:18:28.316Z,40.40
2018-08-12T16:20:56.525Z,39.30
2018-08-12T16:23:28.973Z,39.80
2018-08-12T16:25:57.201Z,40.30
2018-08-12T16:28:25.487Z,40.30
2018-08-12T16:30:53.846Z,40.50
2018-08-12T16:33:22.082Z,40.50
2018-08-12T16:35:50.388Z,41.00
2018-08-12T16:38:19.055Z,41.00
2018-08-12T16:40:47.319Z,40.30
2018-08-12T16:43:15.499Z,40.90
2018-08-12T16:45:43.702Z,40.80
2018-08-12T16:48:12.378Z,41.60
2018-08-12T16:50:41.386Z,41.30
2018-08-12T16:53:09.930Z,41.20
2018-08-12T16:55:38.147Z,41.30
2018-08-12T16:58:06.387Z,41.70
2018-08-12T17:00:34.687Z,41.90
2018-08-12T17:03:02.897Z,42.20
2018-08-12T17:05:31.559Z,41.30
2018-08-12T17:07:59.811Z,41.80
2018-08-12T17:10:28.226Z,42.70
2018-08-12T17:12:56.814Z,41.90
2018-08-12T17:15:25.534Z,42.40
2018-08-12T17:18:00.568Z,42.70
2018-08-12T17:20:28.791Z,42.70
2018-08-12T17:22:57.015Z,43.50
2018-08-12T17:25:25.693Z,42.40
2018-08-12T17:27:53.910Z,42.60
2018-08-12T17:30:22.122Z,43.10
2018-08-12T17:32:50.389Z,42.80
2018-08-12T17:35:18.594Z,43.70
2018-08-12T17:37:46.966Z,42.80
2018-08-12T17:40:16.222Z,43.30
2018-08-12T17:42:44.421Z,42.90
2018-08-12T17:45:20.229Z,43.30
2018-08-12T17:50:23.260Z,43.10
2018-08-12T17:52:51.714Z,44.30
2018-08-12T17:55:19.952Z,43.50
2018-08-12T17:57:48.156Z,43.70
2018-08-12T18:00:16.923Z,44.80
2018-08-12T18:02:45.479Z,45.20
2018-08-12T18:05:14.023Z,45.50
2018-08-12T18:07:42.747Z,44.50
2018-08-12T18:10:11.355Z,45.40
2018-08-12T18:12:39.564Z,46.80
2018-08-12T18:15:09.422Z,45.60
2018-08-12T18:17:37.963Z,46.10
2018-08-12T18:20:06.571Z,46.50
2018-08-12T18:22:34.889Z,45.80
2018-08-12T18:25:03.424Z,46.10
2018-08-12T18:27:31.643Z,46.20
2018-08-12T18:29:59.875Z,46.50
2018-08-12T18:32:28.193Z,46.50
2018-08-12T18:34:56.519Z,47.10
2018-08-12T18:37:24.871Z,47.00
2018-08-12T18:39:53.633Z,47.90
2018-08-12T18:42:22.440Z,47.10
2018-08-12T18:44:50.711Z,47.90
2018-08-12T18:47:18.978Z,47.00
2018-08-12T18:49:49.911Z,47.30
2018-08-12T18:52:18.168Z,47.50
2018-08-12T18:54:46.840Z,48.00
2018-08-12T18:57:15.161Z,48.30
2018-08-12T18:59:43.370Z,48.80
2018-08-12T19:02:12.380Z,49.20
2018-08-12T19:04:40.954Z,49.90
2018-08-12T19:07:09.431Z,50.40
2018-08-12T19:09:37.622Z,51.40
2018-08-12T19:12:05.913Z,50.30
2018-08-12T19:14:34.340Z,50.30
2018-08-12T19:17:02.706Z,50.60
2018-08-12T19:19:31.059Z,51.00
2018-08-12T19:21:59.393Z,51.40
2018-08-12T19:24:28.098Z,51.80
2018-08-12T19:26:56.391Z,51.70
2018-08-12T19:29:25.139Z,52.40
2018-08-12T19:31:53.353Z,53.30
2018-08-12T19:34:21.571Z,53.30
2018-08-12T19:36:49.814Z,54.30
2018-08-12T19:39:18.006Z,54.70
2018-08-12T19:41:46.278Z,54.90
2018-08-12T19:44:14.530Z,55.00
2018-08-12T19:46:42.782Z,54.80
2018-08-12T19:49:11.455Z,54.70
2018-08-12T19:51:40.079Z,55.70
2018-08-12T19:54:08.786Z,56.00
2018-08-12T19:56:37.061Z,55.80
2018-08-12T19:59:05.382Z,56.50
2018-08-12T20:01:34.131Z,56.00
2018-08-12T20:04:02.683Z,57.00
2018-08-12T20:06:30.900Z,57.10
2018-08-12T20:08:59.079Z,57.90
2018-08-12T20:11:27.479Z,57.90
2018-08-12T20:13:55.890Z,57.90
2018-08-12T20:16:24.088Z,58.10
2018-08-12T20:18:52.747Z,58.70
2018-08-12T20:21:20.938Z,58.60
2018-08-12T20:23:50.098Z,58.90
2018-08-12T20:26:18.694Z,59.50
2018-08-12T20:28:46.917Z,59.30
2018-08-12T20:31:15.171Z,60.40
2018-08-12T20:33:43.427Z,60.00
2018-08-12T20:36:11.658Z,61.10
2018-08-12T20:38:39.932Z,62.60
2018-08-12T20:41:08.709Z,62.30
2018-08-12T20:43:36.890Z,62.70
2018-08-12T20:46:05.195Z,63.40
2018-08-12T20:48:33.647Z,63.20
2018-08-12T20:51:02.313Z,64.40
2018-08-12T20:53:31.088Z,65.30
2018-08-12T20:55:59.298Z,65.20
2018-08-12T20:58:27.706Z,65.10
2018-08-12T21:00:56.815Z,67.20
2018-08-12T21:03:24.992Z,65.90
2018-08-12T21:05:53.654Z,66.40
2018-08-12T21:08:21.899Z,67.60
2018-08-12T21:10:50.391Z,69.10
2018-08-12T21:13:18.923Z,68.20
2018-08-12T21:15:47.209Z,69.40
2018-08-12T21:18:16.058Z,71.60
2018-08-12T21:20:44.717Z,71.40
2018-08-12T21:23:13.327Z,72.70
2018-08-12T21:25:41.954Z,74.10
2018-08-12T21:28:10.175Z,74.10
2018-08-12T21:30:38.446Z,75.30
2018-08-12T21:33:06.700Z,75.80
2018-08-12T21:35:34.896Z,75.40
2018-08-12T21:38:03.193Z,76.80
2018-08-12T21:40:31.597Z,76.80
2018-08-12T21:42:59.810Z,78.40
2018-08-12T21:45:28.018Z,79.60
2018-08-12T21:48:10.527Z,79.40
2018-08-12T21:50:38.902Z,80.10
2018-08-12T21:53:14.518Z,80.80
2018-08-12T21:55:42.730Z,82.10
2018-08-12T21:58:10.952Z,84.50
2018-08-12T22:00:40.786Z,85.50
2018-08-12T22:03:09.579Z,85.20
2018-08-12T22:05:38.158Z,86.50
2018-08-12T22:08:08.440Z,86.50
2018-08-12T22:10:37.260Z,86.10
2018-08-12T22:13:12.866Z,87.80
2018-08-12T22:15:41.263Z,88.20
2018-08-12T22:18:10.567Z,89.50
2018-08-12T22:20:38.807Z,89.10
2018-08-12T22:23:07.263Z,89.60
2018-08-12T22:25:36.059Z,91.00
2018-08-12T22:28:04.778Z,91.30
2018-08-12T22:30:33.084Z,91.50
2018-08-12T22:33:01.409Z,91.10
2018-08-12T22:35:29.586Z,92.20
2018-08-12T22:37:57.862Z,92.50
2018-08-12T22:40:26.082Z,92.60
2018-08-12T22:42:54.298Z,92.30
2018-08-12T22:45:22.542Z,92.80
2018-08-12T22:47:50.752Z,93.50
2018-08-12T22:50:20.911Z,93.10
2018-08-12T22:52:49.655Z,93.90
2018-08-12T22:55:17.906Z,94.10
2018-08-12T22:57:46.102Z,95.30
2018-08-12T23:00:17.514Z,95.00
2018-08-12T23:02:45.717Z,95.00
2018-08-12T23:05:14.327Z,95.00
2018-08-12T23:07:43.030Z,95.30
2018-08-12T23:10:11.223Z,95.20
2018-08-12T23:12:39.996Z,96.00
2018-08-12T23:15:19.593Z,96.10
2018-08-12T23:17:53.357Z,96.90
2018-08-12T23:20:21.577Z,96.40
2018-08-12T23:22:49.774Z,96.20
2018-08-12T23:25:18.236Z,96.50
2018-08-12T23:27:46.422Z,96.90
2018-08-12T23:30:14.615Z,96.90
2018-08-12T23:32:42.846Z,96.10
2018-08-12T23:35:11.055Z,96.90
2018-08-12T23:37:39.350Z,96.80
2018-08-12T23:40:07.889Z,97.30
2018-08-12T23:42:36.352Z,97.00
2018-08-12T23:45:04.567Z,97.00
2018-08-12T23:47:33.170Z,97.10
2018-08-12T23:50:01.704Z,97.50
2018-08-12T23:52:37.151Z,97.30
2018-08-12T23:55:05.898Z,97.50
2018-08-12T23:57:34.103Z,97.50
